createdAt,value
2022-07-26T00:01:56.410Z,18.40
2022-07-26T00:06:59.127Z,18.50
2022-07-26T00:12:03.205Z,18.50
2022-07-26T00:17:06.179Z,18.50
2022-07-26T00:22:33.260Z,18.80
2022-07-26T00:27:39.256Z,18.80
2022-07-26T00:32:43.452Z,18.90
2022-07-26T00:37:46.790Z,19.00
2022-07-26T00:42:49.941Z,18.90
2022-07-26T00:47:52.476Z,18.90
2022-07-26T00:52:55.487Z,18.80
2022-07-26T00:57:57.987Z,18.80
2022-07-26T01:03:00.767Z,18.70
2022-07-26T01:08:03.453Z,18.60
2022-07-26T01:13:06.185Z,18.60
2022-07-26T01:18:08.702Z,18.50
2022-07-26T01:23:12.461Z,18.40
2022-07-26T01:28:19.851Z,18.50
2022-07-26T01:33:23.033Z,18.40
2022-07-26T01:38:26.458Z,18.10
2022-07-26T01:43:30.054Z,17.90
2022-07-26T01:48:32.913Z,17.70
2022-07-26T01:53:35.759Z,17.60
2022-07-26T01:58:38.251Z,17.60
2022-07-26T02:03:40.817Z,17.70
2022-07-26T02:08:43.510Z,17.70
2022-07-26T02:13:51.260Z,17.80
2022-07-26T02:18:55.422Z,17.90
2022-07-26T02:23:58.013Z,17.90
2022-07-26T02:29:00.619Z,18.10
2022-07-26T02:34:03.274Z,18.10
2022-07-26T02:39:05.876Z,18.10
2022-07-26T02:44:09.492Z,18.20
2022-07-26T02:49:12.334Z,18.20
2022-07-26T02:54:15.121Z,18.20
2022-07-26T02:59:17.768Z,18.30
2022-07-26T03:04:20.314Z,18.30
2022-07-26T03:09:23.122Z,18.30
2022-07-26T03:14:26.104Z,18.30
2022-07-26T03:19:28.642Z,18.30
2022-07-26T03:24:31.153Z,18.30
2022-07-26T03:29:33.877Z,18.40
2022-07-26T03:34:36.503Z,18.60
2022-07-26T03:39:39.198Z,18.90
2022-07-26T03:44:41.876Z,19.10
2022-07-26T03:49:44.630Z,19.00
2022-07-26T03:54:47.067Z,19.00
2022-07-26T03:59:49.915Z,19.10
2022-07-26T04:04:52.374Z,19.10
2022-07-26T04:09:54.910Z,19.30
2022-07-26T04:14:57.684Z,19.40
2022-07-26T04:20:00.226Z,19.80
2022-07-26T04:25:04.527Z,19.60
2022-07-26T04:30:14.019Z,19.40
2022-07-26T04:35:16.814Z,19.30
2022-07-26T04:40:23.839Z,19.50
2022-07-26T04:45:26.721Z,19.50
2022-07-26T04:50:29.243Z,19.40
2022-07-26T04:55:31.912Z,19.40
2022-07-26T05:00:46.967Z,19.50
2022-07-26T05:05:57.403Z,19.50
2022-07-26T05:10:59.885Z,19.60
2022-07-26T05:16:02.521Z,19.60
2022-07-26T05:21:05.146Z,19.50
2022-07-26T05:26:07.733Z,19.60
2022-07-26T05:31:10.330Z,19.50
2022-07-26T05:36:12.950Z,19.60
2022-07-26T05:41:15.498Z,19.70
2022-07-26T05:46:18.195Z,19.90
2022-07-26T05:51:20.816Z,20.40
2022-07-26T05:56:24.985Z,20.90
2022-07-26T06:01:32.550Z,20.90
2022-07-26T06:06:35.565Z,21.00
2022-07-26T06:11:38.151Z,20.80
2022-07-26T06:16:40.626Z,20.50
2022-07-26T06:21:45.704Z,20.60
2022-07-26T06:26:54.749Z,20.90
2022-07-26T06:31:59.543Z,20.80
2022-07-26T06:37:02.196Z,20.60
2022-07-26T06:42:04.933Z,20.60
2022-07-26T06:47:07.524Z,20.70
2022-07-26T06:52:10.115Z,20.50
2022-07-26T06:57:12.819Z,20.70
2022-07-26T07:02:15.754Z,20.90
2022-07-26T07:07:18.255Z,21.20
2022-07-26T07:12:20.863Z,21.30
2022-07-26T07:17:23.485Z,21.60
2022-07-26T07:22:26.003Z,22.00
2022-07-26T07:27:28.507Z,22.30
2022-07-26T07:32:32.237Z,22.50
2022-07-26T07:37:53.251Z,22.30
2022-07-26T07:42:56.724Z,22.20
2022-07-26T07:47:59.273Z,22.40
2022-07-26T07:53:02.082Z,22.50
2022-07-26T07:58:04.889Z,22.10
2022-07-26T08:03:07.550Z,21.70
2022-07-26T08:08:10.749Z,21.40
2022-07-26T08:13:13.441Z,21.60
2022-07-26T08:18:16.027Z,22.30
2022-07-26T08:23:20.665Z,22.70
2022-07-26T08:28:45.134Z,22.60
2022-07-26T08:33:46.750Z,22.50
2022-07-26T08:38:49.729Z,22.50
2022-07-26T08:43:53.795Z,21.90
2022-07-26T08:48:57.181Z,21.20
2022-07-26T08:54:05.644Z,20.90
2022-07-26T08:59:21.230Z,20.70
2022-07-26T09:04:38.636Z,20.60
2022-07-26T09:09:59.675Z,20.30
2022-07-26T09:15:03.906Z,20.10
2022-07-26T09:20:09.531Z,19.90
2022-07-26T09:25:24.030Z,19.90
2022-07-26T09:30:31.228Z,19.80
2022-07-26T09:35:49.898Z,19.50
2022-07-26T09:40:55.550Z,19.40
2022-07-26T09:46:07.267Z,19.30
2022-07-26T09:51:10.735Z,19.40
2022-07-26T09:56:14.825Z,19.30
2022-07-26T10:01:17.415Z,19.30
2022-07-26T10:06:25.001Z,19.20
2022-07-26T10:11:36.982Z,19.10
2022-07-26T10:16:39.614Z,19.10
2022-07-26T10:21:43.281Z,19.10
2022-07-26T10:26:45.901Z,19.20
2022-07-26T10:32:00.328Z,19.20
2022-07-26T10:37:06.046Z,19.20
2022-07-26T10:42:10.457Z,19.20
2022-07-26T10:47:16.436Z,19.20
2022-07-26T10:52:21.516Z,19.30
2022-07-26T10:57:38.388Z,19.30
2022-07-26T11:02:43.907Z,19.30
2022-07-26T11:08:05.471Z,19.30
2022-07-26T11:13:14.029Z,19.50
2022-07-26T11:18:22.779Z,19.40
2022-07-26T11:23:31.386Z,19.30
2022-07-26T11:28:53.618Z,19.50
2022-07-26T11:33:56.690Z,19.80
2022-07-26T11:39:01.037Z,20.10
2022-07-26T11:44:05.015Z,20.20
2022-07-26T11:49:20.428Z,20.20
2022-07-26T11:54:28.057Z,20.30
2022-07-26T11:59:34.017Z,20.30
2022-07-26T12:04:39.186Z,20.30
2022-07-26T12:09:52.839Z,19.80
2022-07-26T12:15:07.491Z,19.50
2022-07-26T12:20:15.899Z,19.20
2022-07-26T12:25:29.894Z,19.10
2022-07-26T12:30:36.272Z,19.20
2022-07-26T12:35:39.141Z,19.40
2022-07-26T12:40:42.186Z,19.90
2022-07-26T12:45:44.818Z,20.30
2022-07-26T12:50:47.474Z,20.40
2022-07-26T12:55:50.259Z,20.70
2022-07-26T13:00:52.804Z,20.80
2022-07-26T13:05:55.282Z,20.90
2022-07-26T13:11:00.090Z,20.90
2022-07-26T13:16:05.547Z,21.20
2022-07-26T13:21:12.438Z,21.20
2022-07-26T13:26:14.846Z,21.00
2022-07-26T13:31:19.441Z,20.90
2022-07-26T13:36:21.989Z,20.80
2022-07-26T13:41:24.671Z,20.60
2022-07-26T13:46:33.444Z,20.80
2022-07-26T13:51:56.398Z,20.80
2022-07-26T13:57:00.586Z,20.90
2022-07-26T14:02:04.917Z,21.00
2022-07-26T14:07:07.646Z,20.80
2022-07-26T14:12:13.778Z,21.00
2022-07-26T14:17:16.366Z,21.00
2022-07-26T14:22:19.048Z,21.20
2022-07-26T14:27:57.631Z,21.20
2022-07-26T14:33:00.632Z,21.10
2022-07-26T14:38:03.251Z,20.90
2022-07-26T14:43:05.728Z,20.60
2022-07-26T14:48:08.429Z,20.50
2022-07-26T14:53:15.528Z,20.50
2022-07-26T14:58:18.351Z,20.50
2022-07-26T15:03:21.178Z,20.60
2022-07-26T15:08:23.940Z,20.70
2022-07-26T15:13:26.580Z,20.80
2022-07-26T15:18:29.213Z,20.80
2022-07-26T15:23:32.019Z,20.90
2022-07-26T15:28:34.621Z,20.90
2022-07-26T15:33:37.464Z,20.90
2022-07-26T15:38:45.188Z,20.80
2022-07-26T15:43:49.363Z,20.80
2022-07-26T15:48:52.549Z,20.80
2022-07-26T15:53:55.137Z,20.80
2022-07-26T15:58:58.268Z,20.80
2022-07-26T16:04:01.649Z,20.70
2022-07-26T16:09:16.440Z,20.70
2022-07-26T16:14:20.292Z,20.60
2022-07-26T16:19:22.825Z,20.60
2022-07-26T16:24:25.729Z,20.50
2022-07-26T16:29:28.168Z,20.50
2022-07-26T16:34:33.883Z,20.50
2022-07-26T16:39:36.424Z,20.60
2022-07-26T16:44:39.444Z,20.60
2022-07-26T16:49:42.164Z,20.70
2022-07-26T16:54:44.883Z,20.90
2022-07-26T16:59:47.401Z,21.00
2022-07-26T17:04:49.994Z,22.10
2022-07-26T17:09:52.611Z,23.70
2022-07-26T17:14:55.349Z,24.00
2022-07-26T17:19:57.985Z,23.50
2022-07-26T17:25:00.656Z,24.30
2022-07-26T17:30:07.200Z,24.50
2022-07-26T17:35:10.173Z,24.60
2022-07-26T17:40:12.708Z,24.00
2022-07-26T17:45:15.451Z,23.60
2022-07-26T17:55:40.893Z,21.70
2022-07-26T18:00:43.353Z,20.90
2022-07-26T18:05:47.274Z,20.30
2022-07-26T18:10:51.399Z,19.90
2022-07-26T18:15:54.542Z,19.50
2022-07-26T18:20:57.102Z,19.10
2022-07-26T18:25:59.765Z,18.70
2022-07-26T18:31:02.598Z,18.30
2022-07-26T18:36:05.452Z,18.00
2022-07-26T18:41:08.098Z,17.60
2022-07-26T18:46:11.014Z,17.30
2022-07-26T18:51:13.545Z,17.00
2022-07-26T18:56:16.706Z,16.80
2022-07-26T19:01:19.316Z,16.70
2022-07-26T19:06:22.950Z,16.60
2022-07-26T19:11:27.062Z,16.50
2022-07-26T19:16:29.695Z,16.40
2022-07-26T19:21:32.704Z,16.40
2022-07-26T19:26:36.118Z,16.20
2022-07-26T19:31:40.422Z,16.10
2022-07-26T19:36:45.550Z,15.90
2022-07-26T19:41:48.193Z,15.70
2022-07-26T19:46:55.545Z,15.60
2022-07-26T19:52:00.038Z,15.50
2022-07-26T19:57:02.636Z,15.40
2022-07-26T20:02:06.046Z,15.40
2022-07-26T20:07:09.317Z,15.20
2022-07-26T20:12:12.212Z,15.10
2022-07-26T20:17:14.770Z,15.10
2022-07-26T20:22:17.426Z,15.10
2022-07-26T20:27:20.000Z,15.00
2022-07-26T20:32:22.557Z,14.90
2022-07-26T20:37:25.043Z,14.90
2022-07-26T20:42:27.571Z,14.90
2022-07-26T20:47:30.373Z,14.80
2022-07-26T20:52:33.001Z,14.80
2022-07-26T20:57:36.304Z,14.70
2022-07-26T21:02:39.215Z,14.60
2022-07-26T21:07:58.992Z,14.50
2022-07-26T21:13:02.400Z,14.70
2022-07-26T21:18:05.268Z,14.70
2022-07-26T21:23:16.684Z,14.70
2022-07-26T21:28:21.033Z,14.80
2022-07-26T21:33:26.949Z,14.90
2022-07-26T21:38:32.041Z,14.90
2022-07-26T21:43:34.736Z,15.10
2022-07-26T21:48:38.790Z,15.40
2022-07-26T21:53:41.410Z,15.50
2022-07-26T21:58:43.977Z,15.80
2022-07-26T22:03:46.530Z,16.10
2022-07-26T22:08:49.406Z,16.30
2022-07-26T22:13:52.062Z,16.20
2022-07-26T22:18:54.667Z,16.30
2022-07-26T22:23:57.275Z,16.60
2022-07-26T22:28:59.937Z,16.80
2022-07-26T22:34:02.537Z,17.00
2022-07-26T22:39:05.163Z,17.20
2022-07-26T22:44:11.627Z,17.30
2022-07-26T22:49:15.168Z,17.30
2022-07-26T22:54:18.122Z,17.30
2022-07-26T22:59:22.601Z,17.40
2022-07-26T23:04:25.167Z,17.30
2022-07-26T23:09:27.869Z,17.20
2022-07-26T23:14:30.446Z,17.40
2022-07-26T23:19:32.880Z,17.30
2022-07-26T23:24:35.516Z,17.20
2022-07-26T23:29:38.045Z,17.10
2022-07-26T23:34:40.657Z,17.10
2022-07-26T23:39:43.350Z,17.10
2022-07-26T23:44:45.923Z,17.00
2022-07-26T23:49:48.710Z,17.00
2022-07-26T23:54:51.277Z,16.80
2022-07-26T23:59:53.919Z,16.70
